South Porcupine, Canada
Current Conditions -  °F | °C
As of 6:00 PM on Sunday 21 Dec 2014 (Local Time) from CYTS Reporting Station
Overcast Overcast  
Wind Chill: 10°   Ceiling: 3200
Heat Index: 21°   Visibility: 15mi
Dew Point: 19°   Wind: 10mph
Humidity: 93%   Direction: 160°SSE
Pressure: 30.16"   Gusts: NA
Location:  48.49°N, 81.21°W
Report Text: CYTS 212300Z 16009KT 15SM OVC032 M06/M07 A3016 RMK SC8 SLP235
Loading
Personal Weather Stations






























Interactive Weather Map New forecast layout! Learn more

10-Day Weather Forecast

Advertisements
Track Severe Weather on mobile